Terminal Aerodrome Forecast
Issued by NWS

Home | Current Version | Previous Version | Graphics & Text | Print | Product List | Glossary On
Versions: 1 2 3 4 5 6 7 8 9 10 11 12 13 14 15 16 17 18 19 20 21 22 23 24 25 26 27 28 29 30 31 32 33 34
000
FTUS43 KLOT 241730
TAFORD
TAF
KORD 241730Z 2418/2524 16008KT P6SM BKN090
     FM241930 07010KT P6SM BKN070
     FM250200 09012KT P6SM VCSH OVC050
     FM251400 09015G20KT 5SM -RA BR OVC020
     FM251700 08016G22KT 3SM RA BR OVC007
     FM252200 06013KT 6SM -RA OVC008=

USA.gov is the U.S. government's official web portal to all federal, state and local government web resources and services.